createdAt,value
2023-05-19T00:02:05.626Z,1.00
2023-05-19T00:04:33.613Z,1.20
2023-05-19T00:07:01.968Z,1.00
2023-05-19T00:09:28.791Z,0.95
2023-05-19T00:11:56.773Z,1.10
2023-05-19T00:14:23.675Z,1.33
2023-05-19T00:16:50.583Z,1.30
2023-05-19T00:19:17.750Z,1.33
2023-05-19T00:21:44.351Z,1.02
2023-05-19T00:24:11.057Z,1.20
2023-05-19T00:26:37.641Z,1.13
2023-05-19T00:29:04.239Z,1.10
2023-05-19T00:31:31.777Z,0.88
2023-05-19T00:33:58.392Z,1.33
2023-05-19T00:36:25.096Z,1.20
2023-05-19T00:38:51.945Z,1.10
2023-05-19T00:41:18.567Z,1.10
2023-05-19T00:43:45.154Z,1.30
2023-05-19T00:46:11.800Z,1.00
2023-05-19T00:48:38.418Z,1.17
2023-05-19T00:51:06.542Z,1.10
2023-05-19T00:53:34.152Z,1.20
2023-05-19T00:56:02.307Z,0.98
2023-05-19T00:58:31.198Z,1.10
2023-05-19T01:01:04.077Z,1.13
2023-05-19T01:03:32.887Z,1.10
2023-05-19T01:06:04.988Z,1.42
2023-05-19T01:08:38.935Z,1.02
2023-05-19T01:11:06.942Z,1.10
2023-05-19T01:13:35.518Z,1.08
2023-05-19T01:16:14.109Z,1.10
2023-05-19T01:18:46.532Z,1.05
2023-05-19T01:21:25.114Z,1.10
2023-05-19T01:23:56.977Z,1.20
2023-05-19T01:26:42.729Z,1.30
2023-05-19T01:29:28.509Z,0.90
2023-05-19T01:32:00.334Z,1.20
2023-05-19T01:34:27.747Z,1.10
2023-05-19T01:36:55.794Z,1.20
2023-05-19T01:39:23.779Z,1.10
2023-05-19T01:41:51.711Z,1.00
2023-05-19T01:44:19.105Z,0.95
2023-05-19T01:46:45.810Z,1.02
2023-05-19T01:49:13.731Z,1.10
2023-05-19T01:51:41.164Z,1.30
2023-05-19T01:54:07.861Z,1.13
2023-05-19T01:56:46.243Z,1.08
2023-05-19T01:59:33.170Z,1.30
2023-05-19T02:02:06.065Z,1.10
2023-05-19T02:04:50.993Z,1.00
2023-05-19T02:07:46.711Z,0.95
2023-05-19T02:10:22.868Z,1.20
2023-05-19T02:12:54.223Z,1.00
2023-05-19T02:15:36.388Z,1.00
2023-05-19T02:18:04.719Z,1.20
2023-05-19T02:20:31.825Z,1.10
2023-05-19T02:22:58.506Z,1.00
2023-05-19T02:25:25.122Z,1.02
2023-05-19T02:27:52.746Z,1.30
2023-05-19T02:30:19.265Z,1.10
2023-05-19T02:32:48.654Z,0.90
2023-05-19T02:35:15.665Z,1.02
2023-05-19T02:37:42.248Z,1.00
2023-05-19T02:40:09.353Z,1.00
2023-05-19T02:42:35.888Z,0.95
2023-05-19T02:45:02.436Z,1.13
2023-05-19T02:47:29.017Z,0.90
2023-05-19T02:49:55.665Z,1.02
2023-05-19T02:52:22.292Z,0.85
2023-05-19T02:54:48.879Z,0.90
2023-05-19T02:57:15.621Z,1.10
2023-05-19T02:59:42.866Z,1.10
2023-05-19T03:02:09.602Z,1.23
2023-05-19T03:04:41.745Z,1.00
2023-05-19T03:07:16.341Z,0.90
2023-05-19T03:09:43.095Z,1.00
2023-05-19T03:12:09.913Z,1.10
2023-05-19T03:14:39.329Z,1.20
2023-05-19T03:17:08.062Z,1.20
2023-05-19T03:19:34.805Z,1.05
2023-05-19T03:22:01.403Z,1.05
2023-05-19T03:24:28.018Z,0.88
2023-05-19T03:26:54.594Z,0.80
2023-05-19T03:29:21.558Z,0.90
2023-05-19T03:31:48.149Z,0.93
2023-05-19T03:34:14.887Z,1.17
2023-05-19T03:36:41.528Z,0.90
2023-05-19T03:39:08.110Z,0.80
2023-05-19T03:41:34.943Z,0.98
2023-05-19T03:44:01.612Z,1.00
2023-05-19T03:46:28.460Z,0.90
2023-05-19T03:48:55.074Z,0.75
2023-05-19T03:51:21.633Z,1.02
2023-05-19T03:53:48.805Z,1.17
2023-05-19T03:56:18.084Z,1.02
2023-05-19T03:58:45.129Z,1.00
2023-05-19T04:01:11.851Z,0.93
2023-05-19T04:03:38.496Z,0.82
2023-05-19T04:06:05.274Z,0.90
2023-05-19T04:08:32.163Z,0.88
2023-05-19T04:10:58.873Z,1.00
2023-05-19T04:13:25.488Z,0.90
2023-05-19T04:15:52.235Z,0.90
2023-05-19T04:18:19.051Z,0.90
2023-05-19T04:20:45.558Z,0.93
2023-05-19T04:23:12.111Z,1.13
2023-05-19T04:25:40.811Z,0.85
2023-05-19T04:28:07.721Z,0.70
2023-05-19T04:30:34.673Z,0.90
2023-05-19T04:33:03.197Z,0.80
2023-05-19T04:35:29.961Z,1.00
2023-05-19T04:37:56.979Z,0.90
2023-05-19T04:40:23.910Z,0.90
2023-05-19T04:42:54.192Z,1.00
2023-05-19T04:45:20.771Z,1.00
2023-05-19T04:47:48.291Z,0.80
2023-05-19T04:50:16.377Z,0.98
2023-05-19T04:52:45.638Z,0.90
2023-05-19T04:55:13.201Z,0.90
2023-05-19T04:57:40.238Z,0.85
2023-05-19T05:00:09.121Z,0.82
2023-05-19T05:02:36.232Z,0.82
2023-05-19T05:05:02.957Z,1.08
2023-05-19T05:07:31.641Z,1.08
2023-05-19T05:09:58.971Z,0.85
2023-05-19T05:12:25.999Z,0.93
2023-05-19T05:14:52.797Z,0.90
2023-05-19T05:17:20.574Z,1.00
2023-05-19T05:19:48.562Z,0.90
2023-05-19T05:22:15.862Z,0.82
2023-05-19T05:24:42.721Z,0.77
2023-05-19T05:27:10.237Z,0.80
2023-05-19T05:29:37.001Z,1.00
2023-05-19T05:32:03.738Z,0.90
2023-05-19T05:34:30.578Z,0.85
2023-05-19T05:36:57.132Z,0.80
2023-05-19T05:39:23.744Z,0.77
2023-05-19T05:41:50.376Z,0.88
2023-05-19T05:44:16.938Z,0.93
2023-05-19T05:46:43.797Z,0.90
2023-05-19T05:49:12.461Z,0.90
2023-05-19T05:51:39.779Z,0.70
2023-05-19T05:54:07.375Z,0.90
2023-05-19T05:56:34.437Z,0.98
2023-05-19T05:59:02.134Z,0.70
2023-05-19T06:01:30.480Z,0.93
2023-05-19T06:03:57.013Z,0.80
2023-05-19T06:06:23.604Z,1.00
2023-05-19T06:08:50.122Z,0.90
2023-05-19T06:11:16.901Z,0.93
2023-05-19T06:13:43.471Z,0.90
2023-05-19T06:16:10.189Z,1.13
2023-05-19T06:18:36.932Z,1.05
2023-05-19T06:21:03.840Z,1.00
2023-05-19T06:23:31.095Z,1.17
2023-05-19T06:25:57.798Z,0.80
2023-05-19T06:28:24.384Z,0.80
2023-05-19T06:30:50.997Z,1.00
2023-05-19T06:33:17.586Z,0.90
2023-05-19T06:35:44.291Z,1.10
2023-05-19T06:38:10.958Z,1.00
2023-05-19T06:40:37.755Z,1.02
2023-05-19T06:43:04.921Z,0.90
2023-05-19T06:45:31.701Z,0.90
2023-05-19T06:47:58.579Z,0.88
2023-05-19T06:50:25.684Z,0.90
2023-05-19T06:52:52.482Z,0.82
2023-05-19T06:55:19.473Z,1.08
2023-05-19T06:57:46.067Z,1.25
2023-05-19T07:00:15.873Z,1.05
2023-05-19T07:02:44.662Z,1.10
2023-05-19T07:05:11.233Z,1.13
2023-05-19T07:07:37.913Z,0.90
2023-05-19T07:10:05.077Z,1.00
2023-05-19T07:12:31.633Z,0.93
2023-05-19T07:14:58.261Z,0.95
2023-05-19T07:17:24.968Z,0.95
2023-05-19T07:19:51.572Z,1.10
2023-05-19T07:22:18.189Z,0.82
2023-05-19T07:24:45.027Z,1.02
2023-05-19T07:27:11.720Z,0.80
2023-05-19T07:29:38.353Z,1.00
2023-05-19T07:32:05.410Z,1.15
2023-05-19T07:34:32.046Z,1.00
2023-05-19T07:36:58.667Z,1.00
2023-05-19T07:39:27.858Z,0.82
2023-05-19T07:41:55.782Z,1.10
2023-05-19T07:44:22.348Z,0.90
2023-05-19T07:46:49.027Z,0.98
2023-05-19T07:49:15.625Z,0.95
2023-05-19T07:51:42.299Z,1.02
2023-05-19T07:54:09.303Z,0.93
2023-05-19T07:56:35.986Z,1.10
2023-05-19T07:59:03.583Z,0.90
2023-05-19T08:01:32.213Z,0.98
2023-05-19T08:03:58.935Z,1.05
2023-05-19T08:06:25.927Z,0.82
2023-05-19T08:08:54.212Z,1.05
2023-05-19T08:11:21.598Z,1.10
2023-05-19T08:13:49.266Z,0.80
2023-05-19T08:16:16.416Z,1.30
2023-05-19T08:18:43.375Z,2.03
2023-05-19T08:21:10.001Z,1.83
2023-05-19T08:23:37.511Z,2.47
2023-05-19T08:26:04.529Z,1.80
2023-05-19T08:28:31.443Z,2.20
2023-05-19T08:30:58.146Z,2.03
2023-05-19T08:33:24.824Z,1.85
2023-05-19T08:35:51.370Z,1.80
2023-05-19T08:38:17.917Z,1.75
2023-05-19T08:40:47.569Z,1.55
2023-05-19T08:43:15.562Z,1.77
2023-05-19T08:45:48.307Z,1.75
2023-05-19T08:48:17.991Z,2.00
2023-05-19T08:50:53.086Z,1.97
2023-05-19T08:53:33.795Z,1.80
2023-05-19T08:56:24.225Z,1.90
2023-05-19T08:58:51.593Z,1.42
2023-05-19T09:01:19.520Z,1.65
2023-05-19T09:03:49.578Z,2.05
2023-05-19T09:06:16.437Z,1.60
2023-05-19T09:08:43.835Z,1.60
2023-05-19T09:11:10.926Z,1.77
2023-05-19T09:13:37.818Z,1.48
2023-05-19T09:16:04.722Z,1.30
2023-05-19T09:18:31.806Z,1.35
2023-05-19T09:21:00.258Z,1.23
2023-05-19T09:23:29.613Z,1.63
2023-05-19T09:25:57.617Z,1.40
2023-05-19T09:28:24.122Z,1.60
2023-05-19T09:30:59.781Z,1.40
2023-05-19T09:33:26.395Z,1.48
2023-05-19T09:35:55.242Z,1.77
2023-05-19T09:38:23.744Z,1.30
2023-05-19T09:40:51.502Z,1.25
2023-05-19T09:43:18.188Z,1.15
2023-05-19T09:45:44.833Z,1.27
2023-05-19T09:48:11.413Z,1.35
2023-05-19T09:50:38.224Z,1.55
2023-05-19T09:53:05.048Z,1.70
2023-05-19T09:55:33.478Z,1.35
2023-05-19T09:58:03.787Z,1.30
2023-05-19T10:00:32.870Z,1.08
2023-05-19T10:03:00.529Z,1.40
2023-05-19T10:05:27.600Z,1.40
2023-05-19T10:07:55.137Z,1.00
2023-05-19T10:10:22.852Z,1.30
2023-05-19T10:12:49.735Z,1.17
2023-05-19T10:15:18.924Z,1.10
2023-05-19T10:17:46.560Z,1.23
2023-05-19T10:20:15.470Z,1.15
2023-05-19T10:22:44.236Z,1.00
2023-05-19T10:25:11.689Z,1.08
2023-05-19T10:27:44.553Z,1.17
2023-05-19T10:30:16.494Z,1.30
2023-05-19T10:32:45.004Z,1.25
2023-05-19T10:35:47.198Z,1.13
2023-05-19T10:38:22.997Z,1.27
2023-05-19T10:41:11.732Z,1.40
2023-05-19T10:44:04.581Z,1.27
2023-05-19T10:46:31.795Z,1.10
2023-05-19T10:48:59.328Z,1.13
2023-05-19T10:51:32.142Z,1.30
2023-05-19T10:54:02.727Z,1.02
2023-05-19T10:56:33.005Z,1.15
2023-05-19T10:58:59.846Z,1.08
2023-05-19T11:01:34.571Z,1.00
2023-05-19T11:04:10.916Z,1.17
2023-05-19T11:06:38.780Z,0.98
2023-05-19T11:09:16.742Z,0.98
2023-05-19T11:11:53.984Z,1.00
2023-05-19T11:14:23.137Z,1.30
2023-05-19T11:16:51.762Z,1.17
2023-05-19T11:19:33.149Z,1.27
2023-05-19T11:22:11.438Z,1.15
2023-05-19T11:24:42.028Z,0.98
2023-05-19T11:27:19.894Z,1.40
2023-05-19T11:29:48.410Z,0.90
2023-05-19T11:32:16.105Z,1.08
2023-05-19T11:34:44.800Z,1.15
2023-05-19T11:37:12.299Z,1.08
2023-05-19T11:39:39.679Z,1.13
2023-05-19T11:42:06.674Z,1.15
2023-05-19T11:44:33.198Z,0.85
2023-05-19T11:47:00.259Z,1.10
2023-05-19T11:49:29.407Z,1.05
2023-05-19T11:51:56.336Z,1.42
2023-05-19T11:54:34.907Z,1.23
2023-05-19T11:57:03.439Z,0.80
2023-05-19T11:59:33.451Z,1.30
2023-05-19T12:02:24.941Z,1.10
2023-05-19T12:04:52.340Z,1.27
2023-05-19T12:07:23.060Z,1.10
2023-05-19T12:09:51.722Z,0.90
2023-05-19T12:12:19.801Z,1.10
2023-05-19T12:14:47.472Z,1.00
2023-05-19T12:17:24.116Z,1.00
2023-05-19T12:19:51.336Z,1.10
2023-05-19T12:22:19.186Z,0.90
2023-05-19T12:24:47.290Z,1.10
2023-05-19T12:27:19.630Z,1.15
2023-05-19T12:29:53.904Z,1.20
2023-05-19T12:32:27.852Z,1.20
2023-05-19T12:34:58.093Z,1.10
2023-05-19T12:37:27.978Z,1.08
2023-05-19T12:39:56.294Z,1.20
2023-05-19T12:42:23.781Z,1.10
2023-05-19T12:44:52.654Z,1.05
2023-05-19T12:47:20.494Z,1.08
2023-05-19T12:49:57.997Z,1.25
2023-05-19T12:52:24.884Z,1.30
2023-05-19T12:55:08.081Z,1.20
2023-05-19T12:57:36.261Z,1.23
2023-05-19T13:00:25.757Z,1.00
2023-05-19T13:03:05.298Z,1.02
2023-05-19T13:05:34.040Z,1.08
2023-05-19T13:08:03.023Z,1.10
2023-05-19T13:10:31.276Z,1.10
2023-05-19T13:13:00.155Z,1.10
2023-05-19T13:15:34.280Z,1.30
2023-05-19T13:18:03.654Z,1.15
2023-05-19T13:20:30.529Z,1.08
2023-05-19T13:22:57.495Z,1.30
2023-05-19T13:25:24.306Z,1.25
2023-05-19T13:27:51.092Z,0.80
2023-05-19T13:30:19.320Z,1.30
2023-05-19T13:32:46.276Z,1.00
2023-05-19T13:35:14.293Z,1.30
2023-05-19T13:37:43.859Z,1.15
2023-05-19T13:40:11.606Z,1.20
2023-05-19T13:42:38.294Z,1.05
2023-05-19T13:45:05.538Z,1.08
2023-05-19T13:47:32.245Z,1.00
2023-05-19T13:49:59.060Z,1.05
2023-05-19T13:52:27.496Z,1.02
2023-05-19T13:54:56.667Z,1.23
2023-05-19T13:57:26.499Z,1.30
2023-05-19T14:00:02.686Z,1.48
2023-05-19T14:02:30.519Z,1.40
2023-05-19T14:04:57.601Z,1.27
2023-05-19T14:07:25.435Z,1.10
2023-05-19T14:09:52.575Z,1.40
2023-05-19T14:12:20.233Z,1.20
2023-05-19T14:14:50.135Z,1.10
2023-05-19T14:17:16.819Z,1.10
2023-05-19T14:19:43.389Z,1.00
2023-05-19T14:22:10.147Z,1.10
2023-05-19T14:24:37.298Z,1.10
2023-05-19T14:27:04.010Z,1.15
2023-05-19T14:29:34.069Z,1.00
2023-05-19T14:32:00.902Z,1.25
2023-05-19T14:34:27.578Z,1.10
2023-05-19T14:36:54.161Z,1.17
2023-05-19T14:39:21.099Z,1.10
2023-05-19T14:41:49.396Z,1.05
2023-05-19T14:44:16.039Z,1.35
2023-05-19T14:46:42.645Z,0.90
2023-05-19T14:49:09.357Z,0.75
2023-05-19T14:51:36.032Z,1.00
2023-05-19T14:54:02.573Z,0.98
2023-05-19T14:56:29.183Z,1.27
2023-05-19T14:58:56.479Z,1.00
2023-05-19T15:01:23.224Z,0.90
2023-05-19T15:03:49.926Z,1.02
2023-05-19T15:06:16.929Z,1.00
2023-05-19T15:08:43.586Z,1.10
2023-05-19T15:11:10.161Z,1.10
2023-05-19T15:13:36.745Z,1.10
2023-05-19T15:16:16.353Z,1.20
2023-05-19T15:21:10.380Z,1.20
2023-05-19T15:23:36.960Z,1.00
2023-05-19T15:26:03.866Z,1.40
2023-05-19T15:28:30.559Z,1.13
2023-05-19T15:30:57.245Z,1.40
2023-05-19T15:33:24.960Z,1.10
2023-05-19T15:35:52.274Z,1.35
2023-05-19T15:38:19.522Z,1.23
2023-05-19T15:40:46.722Z,1.38
2023-05-19T15:43:13.576Z,1.48
2023-05-19T15:45:40.176Z,1.58
2023-05-19T15:48:06.995Z,1.05
2023-05-19T15:50:33.914Z,1.20
2023-05-19T15:53:00.738Z,1.48
2023-05-19T15:55:27.316Z,1.33
2023-05-19T15:57:54.014Z,1.00
2023-05-19T16:00:20.755Z,1.25
2023-05-19T16:02:47.443Z,1.10
2023-05-19T16:05:14.218Z,1.30
2023-05-19T16:07:42.184Z,1.15
2023-05-19T16:10:09.346Z,1.52
2023-05-19T16:12:36.754Z,1.10
2023-05-19T16:15:03.862Z,1.17
2023-05-19T16:17:30.684Z,1.20
2023-05-19T16:19:57.410Z,1.20
2023-05-19T16:22:24.907Z,1.10
2023-05-19T16:24:52.181Z,1.40
2023-05-19T16:27:19.093Z,1.27
2023-05-19T16:29:45.817Z,1.33
2023-05-19T16:32:13.085Z,1.50
2023-05-19T16:34:40.174Z,1.27
2023-05-19T16:37:06.876Z,1.60
2023-05-19T16:39:37.000Z,1.17
2023-05-19T16:42:06.403Z,1.20
2023-05-19T16:44:32.994Z,1.00
2023-05-19T16:46:59.577Z,1.15
2023-05-19T16:49:27.603Z,1.13
2023-05-19T16:51:54.284Z,1.30
2023-05-19T16:54:21.368Z,1.23
2023-05-19T16:56:48.008Z,1.17
2023-05-19T16:59:14.583Z,1.10
2023-05-19T17:01:41.339Z,1.10
2023-05-19T17:04:08.270Z,1.20
2023-05-19T17:06:35.098Z,1.23
2023-05-19T17:09:02.169Z,1.20
2023-05-19T17:11:28.834Z,1.00
2023-05-19T17:13:55.682Z,1.30
2023-05-19T17:16:23.496Z,1.40
2023-05-19T17:18:50.218Z,1.30
2023-05-19T17:21:17.632Z,1.25
2023-05-19T17:23:44.615Z,0.93
2023-05-19T17:26:11.523Z,1.50
2023-05-19T17:28:38.174Z,1.50
2023-05-19T17:31:15.084Z,1.20
2023-05-19T17:33:41.847Z,1.25
2023-05-19T17:36:09.132Z,1.00
2023-05-19T17:38:40.094Z,1.40
2023-05-19T17:41:10.846Z,1.20
2023-05-19T17:43:38.145Z,1.25
2023-05-19T17:46:04.957Z,1.23
2023-05-19T17:48:32.106Z,1.00
2023-05-19T17:50:59.258Z,1.25
2023-05-19T17:53:26.358Z,1.20
2023-05-19T17:55:59.496Z,1.20
2023-05-19T17:58:26.607Z,1.38
2023-05-19T18:00:54.293Z,1.20
2023-05-19T18:03:22.249Z,1.48
2023-05-19T18:05:50.339Z,1.30
2023-05-19T18:08:17.390Z,1.20
2023-05-19T18:10:44.523Z,1.40
2023-05-19T18:13:13.975Z,1.30
2023-05-19T18:15:40.771Z,1.30
2023-05-19T18:18:07.807Z,1.35
2023-05-19T18:20:34.941Z,1.40
2023-05-19T18:23:02.810Z,1.52
2023-05-19T18:25:29.436Z,1.63
2023-05-19T18:27:56.087Z,1.70
2023-05-19T18:30:23.336Z,1.50
2023-05-19T18:32:49.968Z,1.60
2023-05-19T18:35:16.874Z,1.75
2023-05-19T18:37:43.541Z,1.40
2023-05-19T18:40:10.550Z,1.80
2023-05-19T18:42:37.773Z,1.52
2023-05-19T18:45:04.896Z,1.80
2023-05-19T18:47:31.420Z,1.60
2023-05-19T18:49:58.185Z,1.80
2023-05-19T18:52:26.684Z,1.50
2023-05-19T18:54:53.594Z,1.35
2023-05-19T18:57:20.546Z,1.30
2023-05-19T18:59:47.238Z,1.42
2023-05-19T19:02:13.830Z,1.38
2023-05-19T19:04:40.371Z,1.42
2023-05-19T19:07:06.920Z,1.50
2023-05-19T19:09:33.912Z,1.50
2023-05-19T19:12:00.426Z,1.70
2023-05-19T19:14:27.113Z,1.60
2023-05-19T19:16:53.688Z,1.58
2023-05-19T19:19:20.648Z,1.80
2023-05-19T19:21:47.248Z,1.70
2023-05-19T19:24:13.834Z,1.70
2023-05-19T19:26:40.450Z,1.40
2023-05-19T19:29:06.965Z,1.50
2023-05-19T19:31:33.611Z,1.67
2023-05-19T19:34:03.630Z,1.38
2023-05-19T19:36:30.374Z,1.60
2023-05-19T19:38:56.951Z,1.50
2023-05-19T19:41:23.569Z,1.35
2023-05-19T19:43:51.031Z,1.25
2023-05-19T19:46:17.721Z,1.70
2023-05-19T19:48:44.313Z,1.70
2023-05-19T19:51:10.912Z,1.48
2023-05-19T19:53:37.474Z,1.67
2023-05-19T19:56:05.018Z,1.45
2023-05-19T19:58:31.758Z,1.40
2023-05-19T20:00:59.896Z,1.20
2023-05-19T20:03:27.022Z,1.30
2023-05-19T20:05:55.854Z,1.50
2023-05-19T20:08:23.474Z,1.67
2023-05-19T20:10:50.688Z,1.60
2023-05-19T20:13:18.375Z,1.50
2023-05-19T20:15:46.145Z,1.35
2023-05-19T20:18:13.609Z,1.52
2023-05-19T20:20:41.030Z,1.55
2023-05-19T20:23:07.791Z,1.65
2023-05-19T20:25:50.146Z,1.65
2023-05-19T20:28:25.808Z,1.45
2023-05-19T20:30:52.480Z,1.80
2023-05-19T20:33:19.033Z,1.70
2023-05-19T20:35:45.885Z,1.52
2023-05-19T20:38:12.451Z,1.60
2023-05-19T20:40:39.066Z,1.60
2023-05-19T20:43:05.737Z,1.65
2023-05-19T20:45:32.629Z,1.45
2023-05-19T20:47:59.686Z,2.20
2023-05-19T20:50:26.310Z,1.77
2023-05-19T20:52:52.854Z,1.80
2023-05-19T20:55:19.531Z,1.80
2023-05-19T20:57:46.248Z,1.83
2023-05-19T21:00:13.472Z,1.80
2023-05-19T21:02:40.135Z,1.52
2023-05-19T21:05:07.099Z,1.65
2023-05-19T21:07:33.693Z,1.38
2023-05-19T21:10:00.335Z,1.70
2023-05-19T21:12:29.056Z,1.83
2023-05-19T21:14:55.651Z,1.50
2023-05-19T21:17:22.389Z,1.50
2023-05-19T21:19:50.559Z,1.67
2023-05-19T21:22:17.572Z,1.63
2023-05-19T21:24:44.176Z,1.45
2023-05-19T21:27:10.786Z,1.67
2023-05-19T21:29:37.348Z,1.50
2023-05-19T21:32:04.178Z,1.50
2023-05-19T21:34:30.690Z,1.60
2023-05-19T21:36:57.237Z,1.40
2023-05-19T21:39:23.798Z,1.40
2023-05-19T21:41:51.387Z,1.50
2023-05-19T21:44:18.065Z,1.70
2023-05-19T21:46:44.608Z,1.30
2023-05-19T21:49:11.183Z,1.65
2023-05-19T21:51:37.796Z,1.30
2023-05-19T21:54:04.340Z,1.40
2023-05-19T21:56:31.187Z,1.55
2023-05-19T21:58:57.878Z,1.30
2023-05-19T22:01:24.582Z,1.55
2023-05-19T22:03:51.164Z,1.38
2023-05-19T22:06:17.839Z,1.42
2023-05-19T22:08:44.382Z,1.50
2023-05-19T22:11:10.958Z,1.33
2023-05-19T22:13:41.063Z,1.38
2023-05-19T22:16:08.158Z,1.25
2023-05-19T22:18:34.869Z,1.33
2023-05-19T22:21:01.979Z,1.58
2023-05-19T22:23:28.713Z,1.40
2023-05-19T22:25:55.464Z,1.30
2023-05-19T22:28:22.061Z,1.40
2023-05-19T22:30:48.580Z,1.40
2023-05-19T22:33:15.346Z,1.30
2023-05-19T22:35:41.878Z,1.10
2023-05-19T22:38:10.500Z,1.50
2023-05-19T22:40:37.476Z,1.73
2023-05-19T22:43:04.079Z,1.38
2023-05-19T22:45:31.976Z,1.20
2023-05-19T22:47:58.794Z,1.40
2023-05-19T22:50:25.775Z,1.02
2023-05-19T22:52:52.393Z,1.13
2023-05-19T22:55:19.013Z,1.42
2023-05-19T22:57:45.653Z,1.20
2023-05-19T23:00:18.428Z,1.20
2023-05-19T23:02:45.039Z,1.30
2023-05-19T23:05:11.640Z,1.00
2023-05-19T23:07:38.277Z,1.23
2023-05-19T23:10:07.339Z,1.10
2023-05-19T23:12:33.980Z,1.30
2023-05-19T23:15:00.760Z,1.30
2023-05-19T23:17:27.528Z,1.25
2023-05-19T23:19:54.124Z,1.17
2023-05-19T23:22:20.832Z,1.17
2023-05-19T23:24:47.696Z,1.42
2023-05-19T23:27:14.246Z,1.10
2023-05-19T23:29:40.802Z,1.05
2023-05-19T23:32:07.808Z,1.02
2023-05-19T23:34:34.356Z,1.25
2023-05-19T23:37:00.935Z,1.08
2023-05-19T23:39:27.611Z,1.10
2023-05-19T23:41:54.241Z,1.15
2023-05-19T23:44:20.938Z,1.00
2023-05-19T23:46:47.558Z,1.10
2023-05-19T23:49:14.608Z,1.20
2023-05-19T23:51:41.398Z,1.45
2023-05-19T23:54:07.969Z,1.17
2023-05-19T23:56:34.563Z,1.00
2023-05-19T23:59:01.190Z,1.30
